sensor_id;sensor_type;location;lat;lon;timestamp;P1;durP1;ratioP1;P2;durP2;ratioP2
49626;SDS011;35527;54.616;39.786;2023-07-02T00:00:09;8.77;;;6.78;;
49626;SDS011;35527;54.616;39.786;2023-07-02T00:03:12;10.40;;;6.45;;
49626;SDS011;35527;54.616;39.786;2023-07-02T00:06:16;13.32;;;6.22;;
49626;SDS011;35527;54.616;39.786;2023-07-02T00:09:19;7.57;;;6.07;;
49626;SDS011;35527;54.616;39.786;2023-07-02T00:12:25;8.52;;;6.22;;
49626;SDS011;35527;54.616;39.786;2023-07-02T00:15:29;8.13;;;6.15;;
49626;SDS011;35527;54.616;39.786;2023-07-02T00:18:37;8.77;;;6.90;;
49626;SDS011;35527;54.616;39.786;2023-07-02T00:21:41;8.45;;;6.00;;
49626;SDS011;35527;54.616;39.786;2023-07-02T00:24:45;8.82;;;6.32;;
49626;SDS011;35527;54.616;39.786;2023-07-02T00:27:47;9.20;;;6.55;;
49626;SDS011;35527;54.616;39.786;2023-07-02T00:30:52;9.77;;;6.30;;
49626;SDS011;35527;54.616;39.786;2023-07-02T00:33:56;8.98;;;6.15;;
49626;SDS011;35527;54.616;39.786;2023-07-02T00:37:01;8.32;;;5.90;;
49626;SDS011;35527;54.616;39.786;2023-07-02T00:40:04;9.00;;;6.65;;
49626;SDS011;35527;54.616;39.786;2023-07-02T00:43:10;8.17;;;6.10;;
49626;SDS011;35527;54.616;39.786;2023-07-02T00:46:17;10.20;;;6.70;;
49626;SDS011;35527;54.616;39.786;2023-07-02T00:49:23;10.65;;;6.70;;
49626;SDS011;35527;54.616;39.786;2023-07-02T00:52:28;9.07;;;6.53;;
49626;SDS011;35527;54.616;39.786;2023-07-02T00:55:32;8.93;;;6.38;;
49626;SDS011;35527;54.616;39.786;2023-07-02T00:58:37;8.80;;;6.45;;
49626;SDS011;35527;54.616;39.786;2023-07-02T01:01:50;11.15;;;6.65;;
49626;SDS011;35527;54.616;39.786;2023-07-02T01:04:55;9.73;;;6.45;;
49626;SDS011;35527;54.616;39.786;2023-07-02T01:08:05;7.72;;;6.15;;
49626;SDS011;35527;54.616;39.786;2023-07-02T01:11:08;8.68;;;6.43;;
49626;SDS011;35527;54.616;39.786;2023-07-02T01:14:15;8.70;;;6.30;;
49626;SDS011;35527;54.616;39.786;2023-07-02T01:17:21;7.65;;;6.25;;
49626;SDS011;35527;54.616;39.786;2023-07-02T01:20:25;8.70;;;6.10;;
49626;SDS011;35527;54.616;39.786;2023-07-02T01:23:30;8.98;;;6.07;;
49626;SDS011;35527;54.616;39.786;2023-07-02T01:26:32;8.65;;;6.40;;
49626;SDS011;35527;54.616;39.786;2023-07-02T01:29:36;9.02;;;6.35;;
49626;SDS011;35527;54.616;39.786;2023-07-02T01:32:41;10.07;;;6.22;;
49626;SDS011;35527;54.616;39.786;2023-07-02T01:35:44;11.43;;;5.75;;
49626;SDS011;35527;54.616;39.786;2023-07-02T01:38:47;8.75;;;6.07;;
49626;SDS011;35527;54.616;39.786;2023-07-02T01:41:51;11.05;;;6.30;;
49626;SDS011;35527;54.616;39.786;2023-07-02T01:44:56;8.85;;;5.90;;
49626;SDS011;35527;54.616;39.786;2023-07-02T01:47:59;8.10;;;5.63;;
49626;SDS011;35527;54.616;39.786;2023-07-02T01:51:02;10.45;;;5.57;;
49626;SDS011;35527;54.616;39.786;2023-07-02T01:54:06;6.78;;;5.45;;
49626;SDS011;35527;54.616;39.786;2023-07-02T01:57:12;11.73;;;5.63;;
49626;SDS011;35527;54.616;39.786;2023-07-02T02:00:15;9.13;;;5.68;;
49626;SDS011;35527;54.616;39.786;2023-07-02T02:03:21;7.90;;;5.10;;
49626;SDS011;35527;54.616;39.786;2023-07-02T02:06:27;7.20;;;5.15;;
49626;SDS011;35527;54.616;39.786;2023-07-02T02:09:34;9.30;;;6.30;;
49626;SDS011;35527;54.616;39.786;2023-07-02T02:12:41;9.80;;;5.70;;
49626;SDS011;35527;54.616;39.786;2023-07-02T02:15:45;9.23;;;4.97;;
49626;SDS011;35527;54.616;39.786;2023-07-02T02:18:47;7.10;;;5.30;;
49626;SDS011;35527;54.616;39.786;2023-07-02T02:21:56;7.07;;;5.50;;
49626;SDS011;35527;54.616;39.786;2023-07-02T02:25:01;9.32;;;5.50;;
49626;SDS011;35527;54.616;39.786;2023-07-02T02:28:05;7.53;;;5.38;;
49626;SDS011;35527;54.616;39.786;2023-07-02T02:31:11;8.02;;;6.00;;
49626;SDS011;35527;54.616;39.786;2023-07-02T02:34:15;8.63;;;5.55;;
49626;SDS011;35527;54.616;39.786;2023-07-02T02:37:20;11.90;;;5.65;;
49626;SDS011;35527;54.616;39.786;2023-07-02T02:40:25;7.50;;;5.57;;
49626;SDS011;35527;54.616;39.786;2023-07-02T02:43:28;8.70;;;4.97;;
49626;SDS011;35527;54.616;39.786;2023-07-02T02:46:34;8.38;;;5.35;;
49626;SDS011;35527;54.616;39.786;2023-07-02T02:49:37;8.15;;;5.10;;
49626;SDS011;35527;54.616;39.786;2023-07-02T02:52:41;7.82;;;5.53;;
49626;SDS011;35527;54.616;39.786;2023-07-02T02:55:46;8.07;;;5.20;;
49626;SDS011;35527;54.616;39.786;2023-07-02T02:58:52;9.18;;;5.43;;
49626;SDS011;35527;54.616;39.786;2023-07-02T03:01:56;11.80;;;4.85;;
49626;SDS011;35527;54.616;39.786;2023-07-02T03:05:02;8.80;;;4.80;;
49626;SDS011;35527;54.616;39.786;2023-07-02T03:08:07;8.20;;;4.75;;
49626;SDS011;35527;54.616;39.786;2023-07-02T03:11:11;6.70;;;4.70;;
49626;SDS011;35527;54.616;39.786;2023-07-02T03:14:13;9.52;;;4.65;;
49626;SDS011;35527;54.616;39.786;2023-07-02T03:17:20;6.30;;;4.68;;
49626;SDS011;35527;54.616;39.786;2023-07-02T03:20:24;7.65;;;4.47;;
49626;SDS011;35527;54.616;39.786;2023-07-02T03:23:27;10.25;;;4.82;;
49626;SDS011;35527;54.616;39.786;2023-07-02T03:26:30;7.82;;;4.35;;
49626;SDS011;35527;54.616;39.786;2023-07-02T03:29:36;8.38;;;4.60;;
49626;SDS011;35527;54.616;39.786;2023-07-02T03:32:40;6.93;;;4.25;;
49626;SDS011;35527;54.616;39.786;2023-07-02T03:35:43;6.47;;;4.50;;
49626;SDS011;35527;54.616;39.786;2023-07-02T03:38:46;7.53;;;4.20;;
49626;SDS011;35527;54.616;39.786;2023-07-02T03:41:50;5.97;;;4.07;;
49626;SDS011;35527;54.616;39.786;2023-07-02T03:44:56;6.50;;;4.05;;
49626;SDS011;35527;54.616;39.786;2023-07-02T03:48:00;6.82;;;4.20;;
49626;SDS011;35527;54.616;39.786;2023-07-02T03:51:05;7.70;;;4.30;;
49626;SDS011;35527;54.616;39.786;2023-07-02T03:54:09;8.07;;;4.30;;
49626;SDS011;35527;54.616;39.786;2023-07-02T03:57:11;7.00;;;4.13;;
49626;SDS011;35527;54.616;39.786;2023-07-02T04:00:16;5.90;;;3.83;;
49626;SDS011;35527;54.616;39.786;2023-07-02T04:03:20;6.00;;;3.85;;
49626;SDS011;35527;54.616;39.786;2023-07-02T04:06:25;6.00;;;3.78;;
49626;SDS011;35527;54.616;39.786;2023-07-02T04:09:28;12.35;;;4.00;;
49626;SDS011;35527;54.616;39.786;2023-07-02T04:12:31;6.47;;;3.60;;
49626;SDS011;35527;54.616;39.786;2023-07-02T04:15:34;6.28;;;3.50;;
49626;SDS011;35527;54.616;39.786;2023-07-02T04:18:41;7.32;;;3.67;;
49626;SDS011;35527;54.616;39.786;2023-07-02T04:21:45;5.80;;;3.63;;
49626;SDS011;35527;54.616;39.786;2023-07-02T04:24:49;6.72;;;3.33;;
49626;SDS011;35527;54.616;39.786;2023-07-02T04:27:52;7.68;;;3.80;;
49626;SDS011;35527;54.616;39.786;2023-07-02T04:30:59;5.82;;;3.67;;
49626;SDS011;35527;54.616;39.786;2023-07-02T04:34:02;6.50;;;3.13;;
49626;SDS011;35527;54.616;39.786;2023-07-02T04:37:06;6.32;;;3.47;;
49626;SDS011;35527;54.616;39.786;2023-07-02T04:40:12;7.18;;;3.38;;
49626;SDS011;35527;54.616;39.786;2023-07-02T04:43:17;6.10;;;3.33;;
49626;SDS011;35527;54.616;39.786;2023-07-02T04:46:22;6.95;;;3.72;;
49626;SDS011;35527;54.616;39.786;2023-07-02T04:49:27;4.85;;;3.13;;
49626;SDS011;35527;54.616;39.786;2023-07-02T04:52:30;6.65;;;2.92;;
49626;SDS011;35527;54.616;39.786;2023-07-02T04:55:35;6.95;;;3.50;;
49626;SDS011;35527;54.616;39.786;2023-07-02T04:58:42;5.88;;;3.20;;
49626;SDS011;35527;54.616;39.786;2023-07-02T05:01:45;5.70;;;3.42;;
49626;SDS011;35527;54.616;39.786;2023-07-02T05:04:48;7.00;;;3.20;;
49626;SDS011;35527;54.616;39.786;2023-07-02T05:07:51;6.00;;;3.03;;
49626;SDS011;35527;54.616;39.786;2023-07-02T05:10:55;5.63;;;2.90;;
49626;SDS011;35527;54.616;39.786;2023-07-02T05:13:59;5.25;;;2.97;;
49626;SDS011;35527;54.616;39.786;2023-07-02T05:17:04;4.63;;;2.90;;
49626;SDS011;35527;54.616;39.786;2023-07-02T05:20:08;4.75;;;2.60;;
49626;SDS011;35527;54.616;39.786;2023-07-02T05:23:11;6.00;;;3.03;;
49626;SDS011;35527;54.616;39.786;2023-07-02T05:26:15;5.38;;;2.60;;
49626;SDS011;35527;54.616;39.786;2023-07-02T05:29:18;4.95;;;2.70;;
49626;SDS011;35527;54.616;39.786;2023-07-02T05:32:22;7.63;;;2.97;;
49626;SDS011;35527;54.616;39.786;2023-07-02T05:35:30;5.55;;;2.65;;
49626;SDS011;35527;54.616;39.786;2023-07-02T05:38:33;5.72;;;2.50;;
49626;SDS011;35527;54.616;39.786;2023-07-02T05:41:37;6.25;;;2.88;;
49626;SDS011;35527;54.616;39.786;2023-07-02T05:44:40;5.18;;;2.92;;
49626;SDS011;35527;54.616;39.786;2023-07-02T05:47:47;5.35;;;2.90;;
49626;SDS011;35527;54.616;39.786;2023-07-02T05:50:49;5.38;;;3.03;;
49626;SDS011;35527;54.616;39.786;2023-07-02T05:53:54;5.95;;;2.85;;
49626;SDS011;35527;54.616;39.786;2023-07-02T05:56:58;5.05;;;2.80;;
49626;SDS011;35527;54.616;39.786;2023-07-02T06:00:10;6.13;;;2.78;;
49626;SDS011;35527;54.616;39.786;2023-07-02T06:03:14;5.20;;;2.80;;
49626;SDS011;35527;54.616;39.786;2023-07-02T06:06:24;5.45;;;2.50;;
49626;SDS011;35527;54.616;39.786;2023-07-02T06:09:32;6.93;;;2.70;;
49626;SDS011;35527;54.616;39.786;2023-07-02T06:12:38;4.38;;;2.78;;
49626;SDS011;35527;54.616;39.786;2023-07-02T06:15:41;7.22;;;3.00;;
49626;SDS011;35527;54.616;39.786;2023-07-02T06:18:45;4.40;;;2.72;;
49626;SDS011;35527;54.616;39.786;2023-07-02T06:21:49;6.05;;;2.72;;
49626;SDS011;35527;54.616;39.786;2023-07-02T06:24:59;5.40;;;2.63;;
49626;SDS011;35527;54.616;39.786;2023-07-02T06:28:05;5.43;;;3.00;;
49626;SDS011;35527;54.616;39.786;2023-07-02T06:31:08;6.20;;;3.03;;
49626;SDS011;35527;54.616;39.786;2023-07-02T06:34:12;4.50;;;2.50;;
49626;SDS011;35527;54.616;39.786;2023-07-02T06:37:16;6.97;;;2.95;;
49626;SDS011;35527;54.616;39.786;2023-07-02T06:40:20;4.95;;;2.88;;
49626;SDS011;35527;54.616;39.786;2023-07-02T06:43:25;6.68;;;3.28;;
49626;SDS011;35527;54.616;39.786;2023-07-02T06:46:30;4.82;;;3.03;;
49626;SDS011;35527;54.616;39.786;2023-07-02T06:49:36;5.28;;;3.05;;
49626;SDS011;35527;54.616;39.786;2023-07-02T06:52:40;6.70;;;3.00;;
49626;SDS011;35527;54.616;39.786;2023-07-02T06:55:44;5.47;;;3.08;;
49626;SDS011;35527;54.616;39.786;2023-07-02T06:58:46;5.60;;;2.92;;
49626;SDS011;35527;54.616;39.786;2023-07-02T07:01:56;6.90;;;3.00;;
49626;SDS011;35527;54.616;39.786;2023-07-02T07:05:00;5.25;;;3.10;;
49626;SDS011;35527;54.616;39.786;2023-07-02T07:08:05;5.75;;;3.20;;
49626;SDS011;35527;54.616;39.786;2023-07-02T07:11:13;6.32;;;3.30;;
49626;SDS011;35527;54.616;39.786;2023-07-02T07:14:17;5.70;;;3.15;;
49626;SDS011;35527;54.616;39.786;2023-07-02T07:17:19;6.53;;;2.80;;
49626;SDS011;35527;54.616;39.786;2023-07-02T07:20:25;5.78;;;2.88;;
49626;SDS011;35527;54.616;39.786;2023-07-02T07:23:32;6.78;;;3.20;;
49626;SDS011;35527;54.616;39.786;2023-07-02T07:26:39;7.95;;;3.33;;
49626;SDS011;35527;54.616;39.786;2023-07-02T07:29:43;15.50;;;4.15;;
49626;SDS011;35527;54.616;39.786;2023-07-02T07:32:52;6.38;;;3.20;;
49626;SDS011;35527;54.616;39.786;2023-07-02T07:35:57;5.93;;;2.80;;
49626;SDS011;35527;54.616;39.786;2023-07-02T07:39:03;4.97;;;3.05;;
49626;SDS011;35527;54.616;39.786;2023-07-02T07:42:06;4.80;;;2.90;;
49626;SDS011;35527;54.616;39.786;2023-07-02T07:45:11;6.55;;;3.13;;
49626;SDS011;35527;54.616;39.786;2023-07-02T07:51:21;5.80;;;3.22;;
49626;SDS011;35527;54.616;39.786;2023-07-02T07:54:24;4.95;;;3.05;;
49626;SDS011;35527;54.616;39.786;2023-07-02T07:57:27;7.60;;;3.38;;
49626;SDS011;35527;54.616;39.786;2023-07-02T08:00:32;6.40;;;3.30;;
49626;SDS011;35527;54.616;39.786;2023-07-02T08:03:37;6.30;;;3.25;;
49626;SDS011;35527;54.616;39.786;2023-07-02T08:06:40;5.93;;;3.40;;
49626;SDS011;35527;54.616;39.786;2023-07-02T08:09:47;7.55;;;3.13;;
49626;SDS011;35527;54.616;39.786;2023-07-02T08:12:50;6.70;;;3.28;;
49626;SDS011;35527;54.616;39.786;2023-07-02T08:15:59;5.07;;;3.00;;
49626;SDS011;35527;54.616;39.786;2023-07-02T08:19:01;8.02;;;2.90;;
49626;SDS011;35527;54.616;39.786;2023-07-02T08:25:11;7.18;;;3.47;;
49626;SDS011;35527;54.616;39.786;2023-07-02T08:31:20;6.93;;;3.47;;
49626;SDS011;35527;54.616;39.786;2023-07-02T08:34:23;6.82;;;3.60;;
49626;SDS011;35527;54.616;39.786;2023-07-02T08:37:27;7.28;;;3.75;;
49626;SDS011;35527;54.616;39.786;2023-07-02T08:40:30;5.70;;;3.33;;
49626;SDS011;35527;54.616;39.786;2023-07-02T08:43:35;8.30;;;3.33;;
49626;SDS011;35527;54.616;39.786;2023-07-02T08:46:41;5.82;;;3.20;;
49626;SDS011;35527;54.616;39.786;2023-07-02T08:49:45;5.93;;;3.67;;
49626;SDS011;35527;54.616;39.786;2023-07-02T08:52:52;7.63;;;3.60;;
49626;SDS011;35527;54.616;39.786;2023-07-02T08:55:59;6.90;;;3.40;;
49626;SDS011;35527;54.616;39.786;2023-07-02T08:59:07;9.35;;;3.97;;
49626;SDS011;35527;54.616;39.786;2023-07-02T09:02:11;5.50;;;3.20;;
49626;SDS011;35527;54.616;39.786;2023-07-02T09:05:14;7.50;;;3.47;;
49626;SDS011;35527;54.616;39.786;2023-07-02T09:08:26;7.53;;;3.35;;
49626;SDS011;35527;54.616;39.786;2023-07-02T09:14:34;5.45;;;3.53;;
49626;SDS011;35527;54.616;39.786;2023-07-02T09:17:38;7.68;;;3.75;;
49626;SDS011;35527;54.616;39.786;2023-07-02T09:20:41;5.93;;;3.40;;
49626;SDS011;35527;54.616;39.786;2023-07-02T09:23:44;6.05;;;3.42;;
49626;SDS011;35527;54.616;39.786;2023-07-02T09:26:48;6.38;;;3.50;;
49626;SDS011;35527;54.616;39.786;2023-07-02T09:30:04;6.63;;;3.70;;
49626;SDS011;35527;54.616;39.786;2023-07-02T09:33:12;6.63;;;3.83;;
49626;SDS011;35527;54.616;39.786;2023-07-02T09:36:14;7.47;;;3.40;;
49626;SDS011;35527;54.616;39.786;2023-07-02T09:39:19;5.27;;;3.57;;
49626;SDS011;35527;54.616;39.786;2023-07-02T09:42:28;6.72;;;3.80;;
49626;SDS011;35527;54.616;39.786;2023-07-02T09:45:31;7.93;;;3.80;;
49626;SDS011;35527;54.616;39.786;2023-07-02T09:48:39;7.85;;;4.00;;
49626;SDS011;35527;54.616;39.786;2023-07-02T09:51:43;6.13;;;3.45;;
49626;SDS011;35527;54.616;39.786;2023-07-02T09:54:47;8.57;;;4.10;;
49626;SDS011;35527;54.616;39.786;2023-07-02T09:57:50;7.60;;;4.07;;
49626;SDS011;35527;54.616;39.786;2023-07-02T10:00:53;6.20;;;4.00;;
49626;SDS011;35527;54.616;39.786;2023-07-02T10:04:09;7.43;;;3.70;;
49626;SDS011;35527;54.616;39.786;2023-07-02T10:07:28;7.78;;;4.03;;
49626;SDS011;35527;54.616;39.786;2023-07-02T10:10:31;8.43;;;4.85;;
49626;SDS011;35527;54.616;39.786;2023-07-02T10:13:36;5.95;;;3.85;;
49626;SDS011;35527;54.616;39.786;2023-07-02T10:19:56;7.35;;;4.10;;
49626;SDS011;35527;54.616;39.786;2023-07-02T10:23:01;6.50;;;3.88;;
49626;SDS011;35527;54.616;39.786;2023-07-02T10:26:16;8.80;;;4.10;;
49626;SDS011;35527;54.616;39.786;2023-07-02T10:29:22;5.95;;;3.60;;
49626;SDS011;35527;54.616;39.786;2023-07-02T10:32:27;7.07;;;3.65;;
49626;SDS011;35527;54.616;39.786;2023-07-02T10:35:32;7.60;;;4.38;;
49626;SDS011;35527;54.616;39.786;2023-07-02T10:38:37;6.28;;;3.72;;
49626;SDS011;35527;54.616;39.786;2023-07-02T10:41:42;9.32;;;4.70;;
49626;SDS011;35527;54.616;39.786;2023-07-02T10:44:51;6.38;;;4.20;;
49626;SDS011;35527;54.616;39.786;2023-07-02T10:47:54;7.82;;;4.40;;
49626;SDS011;35527;54.616;39.786;2023-07-02T10:50:57;6.63;;;4.15;;
49626;SDS011;35527;54.616;39.786;2023-07-02T10:54:02;6.90;;;4.38;;
49626;SDS011;35527;54.616;39.786;2023-07-02T10:57:07;7.85;;;4.80;;
49626;SDS011;35527;54.616;39.786;2023-07-02T11:00:11;9.40;;;5.03;;
49626;SDS011;35527;54.616;39.786;2023-07-02T11:06:25;7.72;;;4.68;;
49626;SDS011;35527;54.616;39.786;2023-07-02T11:09:33;7.18;;;4.60;;
49626;SDS011;35527;54.616;39.786;2023-07-02T11:12:35;7.03;;;4.60;;
49626;SDS011;35527;54.616;39.786;2023-07-02T11:15:39;9.38;;;4.90;;
49626;SDS011;35527;54.616;39.786;2023-07-02T11:18:46;8.57;;;4.57;;
49626;SDS011;35527;54.616;39.786;2023-07-02T11:21:50;7.53;;;4.82;;
49626;SDS011;35527;54.616;39.786;2023-07-02T11:24:54;9.18;;;5.07;;
49626;SDS011;35527;54.616;39.786;2023-07-02T11:28:03;8.13;;;4.72;;
49626;SDS011;35527;54.616;39.786;2023-07-02T11:31:07;8.80;;;4.90;;
49626;SDS011;35527;54.616;39.786;2023-07-02T11:34:18;8.20;;;4.85;;
49626;SDS011;35527;54.616;39.786;2023-07-02T11:37:23;8.77;;;4.80;;
49626;SDS011;35527;54.616;39.786;2023-07-02T11:40:27;7.18;;;4.72;;
49626;SDS011;35527;54.616;39.786;2023-07-02T11:43:31;7.90;;;4.32;;
49626;SDS011;35527;54.616;39.786;2023-07-02T11:46:35;8.52;;;4.68;;
49626;SDS011;35527;54.616;39.786;2023-07-02T11:49:38;8.35;;;4.43;;
49626;SDS011;35527;54.616;39.786;2023-07-02T11:52:41;8.70;;;4.68;;
49626;SDS011;35527;54.616;39.786;2023-07-02T11:55:44;7.90;;;4.70;;
49626;SDS011;35527;54.616;39.786;2023-07-02T11:58:47;9.73;;;4.75;;
49626;SDS011;35527;54.616;39.786;2023-07-02T12:01:50;7.60;;;4.60;;
49626;SDS011;35527;54.616;39.786;2023-07-02T12:04:54;7.75;;;5.00;;
49626;SDS011;35527;54.616;39.786;2023-07-02T12:07:58;8.00;;;4.70;;
49626;SDS011;35527;54.616;39.786;2023-07-02T12:11:02;8.50;;;5.00;;
49626;SDS011;35527;54.616;39.786;2023-07-02T12:14:06;8.63;;;4.88;;
49626;SDS011;35527;54.616;39.786;2023-07-02T12:17:11;7.35;;;4.72;;
49626;SDS011;35527;54.616;39.786;2023-07-02T12:20:15;8.45;;;4.95;;
49626;SDS011;35527;54.616;39.786;2023-07-02T12:23:19;8.47;;;5.10;;
49626;SDS011;35527;54.616;39.786;2023-07-02T12:26:23;10.90;;;5.75;;
49626;SDS011;35527;54.616;39.786;2023-07-02T12:29:27;9.63;;;5.50;;
49626;SDS011;35527;54.616;39.786;2023-07-02T12:32:30;10.27;;;5.80;;
49626;SDS011;35527;54.616;39.786;2023-07-02T12:35:34;8.63;;;5.40;;
49626;SDS011;35527;54.616;39.786;2023-07-02T12:38:36;10.30;;;5.40;;
49626;SDS011;35527;54.616;39.786;2023-07-02T12:41:41;7.80;;;5.20;;
49626;SDS011;35527;54.616;39.786;2023-07-02T12:44:43;9.55;;;5.18;;
49626;SDS011;35527;54.616;39.786;2023-07-02T12:47:49;8.43;;;5.22;;
49626;SDS011;35527;54.616;39.786;2023-07-02T12:50:55;12.05;;;5.68;;
49626;SDS011;35527;54.616;39.786;2023-07-02T12:54:01;9.20;;;6.15;;
49626;SDS011;35527;54.616;39.786;2023-07-02T12:57:05;8.93;;;5.65;;
49626;SDS011;35527;54.616;39.786;2023-07-02T13:00:09;10.18;;;5.57;;
49626;SDS011;35527;54.616;39.786;2023-07-02T13:03:13;10.25;;;5.35;;
49626;SDS011;35527;54.616;39.786;2023-07-02T13:06:21;9.98;;;5.93;;
49626;SDS011;35527;54.616;39.786;2023-07-02T13:09:24;9.07;;;5.70;;
49626;SDS011;35527;54.616;39.786;2023-07-02T13:12:31;9.60;;;6.57;;
49626;SDS011;35527;54.616;39.786;2023-07-02T13:15:34;9.50;;;6.43;;
49626;SDS011;35527;54.616;39.786;2023-07-02T13:18:41;9.30;;;6.15;;
49626;SDS011;35527;54.616;39.786;2023-07-02T13:21:46;11.63;;;5.18;;
49626;SDS011;35527;54.616;39.786;2023-07-02T13:24:50;8.23;;;6.07;;
49626;SDS011;35527;54.616;39.786;2023-07-02T13:27:53;11.50;;;6.30;;
49626;SDS011;35527;54.616;39.786;2023-07-02T13:30:55;10.63;;;7.07;;
49626;SDS011;35527;54.616;39.786;2023-07-02T13:33:59;8.63;;;6.47;;
49626;SDS011;35527;54.616;39.786;2023-07-02T13:37:02;9.02;;;6.38;;
49626;SDS011;35527;54.616;39.786;2023-07-02T13:40:05;9.90;;;6.80;;
49626;SDS011;35527;54.616;39.786;2023-07-02T13:43:12;10.82;;;7.63;;
49626;SDS011;35527;54.616;39.786;2023-07-02T13:46:15;9.65;;;6.80;;
49626;SDS011;35527;54.616;39.786;2023-07-02T13:49:17;11.20;;;5.88;;
49626;SDS011;35527;54.616;39.786;2023-07-02T13:52:20;9.30;;;5.88;;
49626;SDS011;35527;54.616;39.786;2023-07-02T13:55:23;8.32;;;5.80;;
49626;SDS011;35527;54.616;39.786;2023-07-02T14:02:10;8.80;;;6.15;;
49626;SDS011;35527;54.616;39.786;2023-07-02T14:05:16;9.82;;;6.50;;
49626;SDS011;35527;54.616;39.786;2023-07-02T14:08:19;10.18;;;8.07;;
49626;SDS011;35527;54.616;39.786;2023-07-02T14:11:24;9.20;;;6.53;;
49626;SDS011;35527;54.616;39.786;2023-07-02T14:14:30;9.82;;;6.80;;
49626;SDS011;35527;54.616;39.786;2023-07-02T14:17:35;11.93;;;6.57;;
49626;SDS011;35527;54.616;39.786;2023-07-02T14:20:39;9.82;;;6.30;;
49626;SDS011;35527;54.616;39.786;2023-07-02T14:23:44;10.30;;;7.18;;
49626;SDS011;35527;54.616;39.786;2023-07-02T14:29:52;11.52;;;6.13;;
49626;SDS011;35527;54.616;39.786;2023-07-02T14:32:56;9.57;;;5.93;;
49626;SDS011;35527;54.616;39.786;2023-07-02T14:35:59;10.85;;;6.38;;
49626;SDS011;35527;54.616;39.786;2023-07-02T14:39:02;8.23;;;5.63;;
49626;SDS011;35527;54.616;39.786;2023-07-02T14:42:08;10.73;;;7.68;;
49626;SDS011;35527;54.616;39.786;2023-07-02T14:45:11;8.63;;;5.50;;
49626;SDS011;35527;54.616;39.786;2023-07-02T14:48:16;14.77;;;7.82;;
49626;SDS011;35527;54.616;39.786;2023-07-02T14:51:22;10.38;;;6.97;;
49626;SDS011;35527;54.616;39.786;2023-07-02T14:54:26;10.98;;;6.38;;
49626;SDS011;35527;54.616;39.786;2023-07-02T14:57:30;9.53;;;6.87;;
49626;SDS011;35527;54.616;39.786;2023-07-02T15:00:35;11.02;;;7.85;;
49626;SDS011;35527;54.616;39.786;2023-07-02T15:03:39;8.60;;;5.50;;
49626;SDS011;35527;54.616;39.786;2023-07-02T15:06:42;9.90;;;5.28;;
49626;SDS011;35527;54.616;39.786;2023-07-02T15:09:45;9.67;;;5.00;;
49626;SDS011;35527;54.616;39.786;2023-07-02T15:12:51;8.52;;;5.68;;
49626;SDS011;35527;54.616;39.786;2023-07-02T15:15:54;7.97;;;4.78;;
49626;SDS011;35527;54.616;39.786;2023-07-02T15:18:58;9.52;;;5.28;;
49626;SDS011;35527;54.616;39.786;2023-07-02T15:25:08;7.75;;;4.63;;
49626;SDS011;35527;54.616;39.786;2023-07-02T15:28:12;8.15;;;4.82;;
49626;SDS011;35527;54.616;39.786;2023-07-02T15:31:15;8.50;;;4.85;;
49626;SDS011;35527;54.616;39.786;2023-07-02T15:34:19;7.53;;;4.80;;
49626;SDS011;35527;54.616;39.786;2023-07-02T15:37:22;8.55;;;5.00;;
49626;SDS011;35527;54.616;39.786;2023-07-02T15:40:25;7.72;;;4.65;;
49626;SDS011;35527;54.616;39.786;2023-07-02T15:43:29;8.27;;;5.40;;
49626;SDS011;35527;54.616;39.786;2023-07-02T15:46:32;7.68;;;4.72;;
49626;SDS011;35527;54.616;39.786;2023-07-02T15:49:37;9.45;;;4.95;;
49626;SDS011;35527;54.616;39.786;2023-07-02T15:52:41;10.10;;;5.20;;
49626;SDS011;35527;54.616;39.786;2023-07-02T15:55:47;9.30;;;5.72;;
49626;SDS011;35527;54.616;39.786;2023-07-02T15:58:51;7.45;;;4.72;;
49626;SDS011;35527;54.616;39.786;2023-07-02T16:01:56;8.88;;;5.15;;
49626;SDS011;35527;54.616;39.786;2023-07-02T16:05:01;9.67;;;5.43;;
49626;SDS011;35527;54.616;39.786;2023-07-02T16:08:04;8.82;;;5.03;;
49626;SDS011;35527;54.616;39.786;2023-07-02T16:11:08;7.85;;;4.88;;
49626;SDS011;35527;54.616;39.786;2023-07-02T16:14:16;7.22;;;4.82;;
49626;SDS011;35527;54.616;39.786;2023-07-02T16:17:26;8.63;;;5.55;;
49626;SDS011;35527;54.616;39.786;2023-07-02T16:20:29;7.30;;;4.65;;
49626;SDS011;35527;54.616;39.786;2023-07-02T16:23:32;8.13;;;4.70;;
49626;SDS011;35527;54.616;39.786;2023-07-02T16:26:37;7.00;;;4.97;;
49626;SDS011;35527;54.616;39.786;2023-07-02T16:29:44;6.60;;;4.50;;
49626;SDS011;35527;54.616;39.786;2023-07-02T16:32:47;7.65;;;4.30;;
49626;SDS011;35527;54.616;39.786;2023-07-02T16:35:50;8.32;;;4.45;;
49626;SDS011;35527;54.616;39.786;2023-07-02T16:38:53;6.45;;;4.30;;
49626;SDS011;35527;54.616;39.786;2023-07-02T16:41:58;7.43;;;4.38;;
49626;SDS011;35527;54.616;39.786;2023-07-02T16:45:00;7.40;;;4.03;;
49626;SDS011;35527;54.616;39.786;2023-07-02T16:48:07;8.00;;;4.55;;
49626;SDS011;35527;54.616;39.786;2023-07-02T16:51:11;8.95;;;4.60;;
49626;SDS011;35527;54.616;39.786;2023-07-02T16:54:16;6.97;;;4.60;;
49626;SDS011;35527;54.616;39.786;2023-07-02T16:57:21;7.15;;;3.85;;
49626;SDS011;35527;54.616;39.786;2023-07-02T17:00:25;7.28;;;4.60;;
49626;SDS011;35527;54.616;39.786;2023-07-02T17:03:29;12.57;;;5.03;;
49626;SDS011;35527;54.616;39.786;2023-07-02T17:06:33;7.90;;;4.53;;
49626;SDS011;35527;54.616;39.786;2023-07-02T17:09:37;7.72;;;4.85;;
49626;SDS011;35527;54.616;39.786;2023-07-02T17:12:43;9.77;;;4.97;;
49626;SDS011;35527;54.616;39.786;2023-07-02T17:15:46;13.10;;;5.00;;
49626;SDS011;35527;54.616;39.786;2023-07-02T17:18:51;7.95;;;4.70;;
49626;SDS011;35527;54.616;39.786;2023-07-02T17:21:54;10.18;;;5.25;;
49626;SDS011;35527;54.616;39.786;2023-07-02T17:24:59;8.23;;;4.15;;
49626;SDS011;35527;54.616;39.786;2023-07-02T17:28:05;8.55;;;4.60;;
49626;SDS011;35527;54.616;39.786;2023-07-02T17:31:08;7.38;;;4.72;;
49626;SDS011;35527;54.616;39.786;2023-07-02T17:34:11;9.48;;;4.82;;
49626;SDS011;35527;54.616;39.786;2023-07-02T17:37:17;10.77;;;4.80;;
49626;SDS011;35527;54.616;39.786;2023-07-02T17:40:22;8.70;;;4.82;;
49626;SDS011;35527;54.616;39.786;2023-07-02T17:43:54;8.02;;;4.85;;
49626;SDS011;35527;54.616;39.786;2023-07-02T17:46:58;9.18;;;4.82;;
49626;SDS011;35527;54.616;39.786;2023-07-02T17:53:06;11.73;;;4.80;;
49626;SDS011;35527;54.616;39.786;2023-07-02T17:56:11;8.70;;;5.10;;
49626;SDS011;35527;54.616;39.786;2023-07-02T17:59:14;8.50;;;4.85;;
49626;SDS011;35527;54.616;39.786;2023-07-02T18:02:19;7.97;;;4.85;;
49626;SDS011;35527;54.616;39.786;2023-07-02T18:05:23;7.45;;;4.57;;
49626;SDS011;35527;54.616;39.786;2023-07-02T18:11:30;9.35;;;5.50;;
49626;SDS011;35527;54.616;39.786;2023-07-02T18:14:33;10.27;;;5.00;;
49626;SDS011;35527;54.616;39.786;2023-07-02T18:17:37;10.35;;;5.28;;
49626;SDS011;35527;54.616;39.786;2023-07-02T18:23:46;8.75;;;5.35;;
49626;SDS011;35527;54.616;39.786;2023-07-02T18:26:50;9.85;;;5.63;;
49626;SDS011;35527;54.616;39.786;2023-07-02T18:29:55;8.18;;;5.43;;
49626;SDS011;35527;54.616;39.786;2023-07-02T18:32:58;11.13;;;5.22;;
49626;SDS011;35527;54.616;39.786;2023-07-02T18:36:02;10.30;;;5.10;;
49626;SDS011;35527;54.616;39.786;2023-07-02T18:39:05;7.60;;;4.78;;
49626;SDS011;35527;54.616;39.786;2023-07-02T18:42:11;11.43;;;5.40;;
49626;SDS011;35527;54.616;39.786;2023-07-02T18:45:14;8.98;;;5.15;;
49626;SDS011;35527;54.616;39.786;2023-07-02T18:48:20;9.63;;;5.68;;
49626;SDS011;35527;54.616;39.786;2023-07-02T18:51:24;9.77;;;4.93;;